Time;durP1;ratioP1;P1;durP2;ratioP2;P2;SDS_P1;SDS_P2;PMS_P1;PMS_P2;Temp;Humidity;BMP_temperature;BMP_pressure;BME280_temperature;BME280_humidity;BME280_pressure;Samples;Min_cycle;Max_cycle;Signal;HPM_P1;HPM_P2
2022/05/29 00:00:46;;;;;;;3.85;2.30;;;;;;;8.35;66.92;98854.59;5042305;28;20048;-55
2022/05/29 00:03:11;;;;;;;4.97;2.45;;;;;;;8.29;67.21;98850.63;5041503;28;20039;-56
2022/05/29 00:05:38;;;;;;;8.15;2.28;;;;;;;8.15;67.26;98830.50;5041518;28;20118;-51
2022/05/29 00:08:05;;;;;;;3.85;1.85;;;;;;;8.30;67.01;98856.81;5042654;28;20044;-53
2022/05/29 00:10:35;;;;;;;5.05;1.75;;;;;;;8.29;67.22;98857.81;5039149;28;20663;-53
2022/05/29 00:13:00;;;;;;;6.53;2.22;;;;;;;8.28;67.01;98861.44;5039546;28;20026;-51
2022/05/29 00:15:26;;;;;;;3.38;1.98;;;;;;;8.27;67.59;98859.75;5043450;28;20036;-53
2022/05/29 00:17:51;;;;;;;5.78;2.03;;;;;;;8.23;67.24;98859.16;5038789;28;20067;-53
2022/05/29 00:20:17;;;;;;;4.55;1.95;;;;;;;8.24;67.15;98857.38;5040061;28;20476;-53
2022/05/29 00:22:43;;;;;;;6.07;1.60;;;;;;;8.25;67.07;98856.38;5040699;28;20025;-52
2022/05/29 00:25:10;;;;;;;4.57;2.05;;;;;;;8.25;67.27;98859.06;5041963;28;20044;-53
2022/05/29 00:27:36;;;;;;;9.20;2.20;;;;;;;8.17;67.35;98855.22;5042247;28;20428;-55
2022/05/29 00:30:05;;;;;;;5.65;1.77;;;;;;;8.17;67.46;98857.88;5038792;28;20033;-54
2022/05/29 00:32:31;;;;;;;3.83;2.05;;;;;;;8.16;67.43;98861.50;5039450;28;20409;-53
2022/05/29 00:34:56;;;;;;;3.58;1.70;;;;;;;8.16;67.53;98866.03;5040607;28;20451;-51
2022/05/29 00:37:22;;;;;;;6.43;2.22;;;;;;;8.12;67.64;98870.75;5038988;28;20032;-55
2022/05/29 00:39:50;;;;;;;3.88;1.88;;;;;;;8.13;68.03;98867.13;5038583;28;20516;-50
2022/05/29 00:42:20;;;;;;;7.85;1.92;;;;;;;8.14;67.94;98887.47;5039037;28;20037;-55
2022/05/29 00:44:46;;;;;;;4.30;2.00;;;;;;;8.15;68.28;98875.81;5040241;28;20059;-53
2022/05/29 00:47:14;;;;;;;5.15;1.90;;;;;;;8.23;67.73;98883.16;5038683;28;20143;-55
2022/05/29 00:49:42;;;;;;;4.57;2.00;;;;;;;8.33;67.36;98883.22;5037044;28;20021;-54
2022/05/29 00:52:16;;;;;;;4.03;2.05;;;;;;;8.28;67.00;98850.78;5038512;28;20028;-54
2022/05/29 00:54:57;;;;;;;6.25;1.80;;;;;;;8.64;66.80;98879.75;5041861;28;20028;-54
2022/05/29 00:57:38;;;;;;;5.75;2.50;;;;;;;8.76;66.35;98883.97;5044134;28;20684;-54
2022/05/29 01:00:10;;;;;;;5.72;1.90;;;;;;;8.84;66.18;98888.66;5041091;28;20117;-51
2022/05/29 01:02:36;;;;;;;4.05;1.90;;;;;;;8.92;65.80;98887.97;5042376;28;20033;-52
2022/05/29 01:05:08;;;;;;;6.40;1.90;;;;;;;9.04;65.43;98877.03;5042107;28;20025;-52
2022/05/29 01:07:35;;;;;;;6.22;1.70;;;;;;;9.12;65.02;98876.34;5034452;28;20389;-53
2022/05/29 01:10:03;;;;;;;4.55;1.98;;;;;;;9.20;64.93;98883.69;5040036;28;20032;-52
2022/05/29 01:12:32;;;;;;;5.47;1.80;;;;;;;9.30;64.94;98878.34;5044071;28;20031;-54
2022/05/29 01:15:31;;;;;;;6.40;1.83;;;;;;;9.43;64.50;98878.91;5041725;28;20037;-53
2022/05/29 01:18:09;;;;;;;5.90;1.90;;;;;;;9.44;64.37;98874.44;5040073;28;20033;-55
2022/05/29 01:21:09;;;;;;;8.20;2.38;;;;;;;9.60;64.27;98877.38;5031301;28;20072;-53
2022/05/29 01:24:17;;;;;;;3.30;1.80;;;;;;;9.68;63.83;98882.00;5032712;28;20028;-51
2022/05/29 01:26:58;;;;;;;6.85;2.10;;;;;;;9.73;63.64;98889.63;5038328;28;20492;-53
2022/05/29 01:29:57;;;;;;;6.32;1.73;;;;;;;9.76;63.43;98887.47;5040155;28;20737;-52
2022/05/29 01:33:03;;;;;;;6.47;1.95;;;;;;;9.63;63.55;98865.56;5037266;28;20603;-52
2022/05/29 01:35:44;;;;;;;9.13;2.17;;;;;;;9.72;63.21;98885.25;5040227;28;20017;-55
2022/05/29 01:38:16;;;;;;;4.78;1.92;;;;;;;9.63;62.93;98881.59;5041602;28;20022;-51
2022/05/29 01:40:49;;;;;;;7.38;1.80;;;;;;;9.72;63.34;98902.13;5041836;28;20388;-54
2022/05/29 01:43:39;;;;;;;9.45;1.60;;;;;;;9.67;63.54;98892.84;5039858;28;20120;-52
2022/05/29 01:46:25;;;;;;;6.20;2.28;;;;;;;9.54;63.67;98888.63;5043671;28;20025;-55
2022/05/29 01:49:13;;;;;;;4.15;2.35;;;;;;;9.67;63.85;98906.22;5043180;28;20031;-54
2022/05/29 01:51:54;;;;;;;5.35;2.50;;;;;;;9.61;63.90;98905.78;5039565;28;20477;-53
2022/05/29 01:54:34;;;;;;;7.70;2.80;;;;;;;9.51;63.47;98920.09;5040357;28;20036;-52
2022/05/29 01:57:13;;;;;;;7.07;2.80;;;;;;;9.53;64.07;98912.84;5037501;28;20401;-54
2022/05/29 02:00:01;;;;;;;3.53;2.50;;;;;;;9.57;63.85;98914.22;5040303;28;20033;-51
2022/05/29 02:02:41;;;;;;;6.88;3.17;;;;;;;9.51;63.94;98915.63;5037637;28;20049;-53
2022/05/29 02:05:14;;;;;;;4.70;2.90;;;;;;;9.56;63.82;98918.72;5035842;28;20083;-51
2022/05/29 02:07:48;;;;;;;8.80;3.00;;;;;;;9.55;63.49;98910.84;5033922;28;20695;-52
2022/05/29 02:10:29;;;;;;;4.93;2.95;;;;;;;9.67;63.49;98919.59;5038376;28;20043;-52
2022/05/29 02:13:10;;;;;;;4.60;2.90;;;;;;;9.66;62.87;98912.56;5036651;28;20499;-55
2022/05/29 02:15:58;;;;;;;5.15;2.40;;;;;;;9.96;62.49;98934.75;5040739;28;20040;-53
2022/05/29 02:18:29;;;;;;;7.32;2.78;;;;;;;10.20;61.93;98931.63;5029244;28;20543;-52
2022/05/29 02:20:58;;;;;;;5.05;2.30;;;;;;;10.37;61.53;98947.94;5038776;28;20036;-53
2022/05/29 02:23:37;;;;;;;5.25;2.00;;;;;;;10.65;61.07;98946.19;5041317;28;20028;-49
2022/05/29 02:26:07;;;;;;;7.70;2.17;;;;;;;10.83;59.86;98948.09;5033882;28;20071;-52
2022/05/29 02:28:38;;;;;;;4.15;1.85;;;;;;;11.23;59.23;98954.97;5032693;28;20384;-54
2022/05/29 02:31:26;;;;;;;3.58;1.67;;;;;;;11.75;58.10;98942.75;5038233;28;20029;-51
2022/05/29 02:34:17;;;;;;;1.95;1.50;;;;;;;12.20;57.07;98954.41;5037737;28;20111;-53
2022/05/29 02:37:02;;;;;;;3.20;1.45;;;;;;;12.42;55.75;98955.75;5038043;28;20033;-52
2022/05/29 02:39:43;;;;;;;5.68;1.52;;;;;;;12.56;55.17;98966.91;5037705;28;20225;-56
2022/05/29 02:42:14;;;;;;;2.65;1.33;;;;;;;12.54;55.37;98966.19;5040691;28;20041;-52
2022/05/29 02:45:05;;;;;;;3.67;1.35;;;;;;;12.44;55.74;98972.53;5036444;28;20259;-54
2022/05/29 02:47:42;;;;;;;4.68;1.60;;;;;;;12.14;56.05;98974.66;5037332;28;20367;-52
2022/05/29 02:50:24;;;;;;;2.33;1.30;;;;;;;12.12;56.73;98981.16;5038849;28;20037;-56
2022/05/29 02:52:52;;;;;;;3.85;1.52;;;;;;;11.99;56.68;98987.75;5035860;28;20100;-50
2022/05/29 02:55:19;;;;;;;5.03;1.60;;;;;;;12.09;56.38;98982.34;5034059;28;20033;-51
2022/05/29 02:57:46;;;;;;;3.38;1.52;;;;;;;12.14;56.29;98985.41;5038745;28;20033;-54
2022/05/29 03:00:12;;;;;;;2.17;1.30;;;;;;;12.24;55.86;98989.81;5038501;28;20145;-54
2022/05/29 03:02:43;;;;;;;6.35;1.38;;;;;;;12.42;55.95;98990.63;5037505;28;20779;-52
2022/05/29 03:05:34;;;;;;;2.55;1.20;;;;;;;12.70;55.49;98989.66;5040878;28;20041;-52
2022/05/29 03:08:08;;;;;;;3.17;1.30;;;;;;;12.95;54.30;98993.31;5036133;28;20100;-54
2022/05/29 03:10:42;;;;;;;3.20;1.38;;;;;;;13.34;53.59;98992.81;5042641;28;20025;-51
2022/05/29 03:13:14;;;;;;;2.28;1.33;;;;;;;13.69;52.40;98994.63;5041132;28;20036;-53
2022/05/29 03:16:01;;;;;;;3.97;1.40;;;;;;;13.97;51.78;99002.41;5040380;28;20078;-49
2022/05/29 03:18:36;;;;;;;3.67;1.40;;;;;;;14.23;51.38;98998.72;5039603;28;20033;-52
2022/05/29 03:21:43;;;;;;;4.60;1.60;;;;;;;14.45;51.43;99006.13;5041840;28;20040;-53
2022/05/29 03:24:18;;;;;;;1.75;1.25;;;;;;;14.30;50.27;99003.28;5038485;28;20133;-55
2022/05/29 03:26:52;;;;;;;2.97;1.40;;;;;;;14.24;50.73;99009.34;5042687;28;20052;-52
2022/05/29 03:29:28;;;;;;;2.08;1.25;;;;;;;14.04;51.43;99014.22;5041963;28;20440;-51
2022/05/29 03:31:55;;;;;;;3.40;1.30;;;;;;;13.75;51.74;99012.81;5037720;28;20044;-57
2022/05/29 03:34:21;;;;;;;3.83;1.50;;;;;;;13.56;51.92;99022.84;5044364;28;20041;-53
2022/05/29 03:36:49;;;;;;;5.63;1.35;;;;;;;13.38;52.51;99025.59;5039785;28;20025;-54
2022/05/29 03:39:15;;;;;;;3.20;1.20;;;;;;;13.41;52.56;99013.69;5039231;28;20033;-51
2022/05/29 03:41:50;;;;;;;2.30;1.10;;;;;;;13.77;52.18;99024.25;5040204;28;20512;-53
2022/05/29 03:44:19;;;;;;;3.08;1.23;;;;;;;14.15;50.46;99027.34;5042744;28;20029;-54
2022/05/29 03:46:44;;;;;;;3.88;1.15;;;;;;;14.62;49.76;99027.66;5041959;28;20049;-52
2022/05/29 03:49:11;;;;;;;6.38;1.25;;;;;;;15.45;47.64;99041.00;5042306;28;20087;-56
2022/05/29 03:51:37;;;;;;;1.92;1.20;;;;;;;16.35;45.27;99022.56;5041901;28;20039;-52
2022/05/29 03:54:04;;;;;;;3.38;1.00;;;;;;;17.01;43.37;99035.50;5041246;28;20037;-48
2022/05/29 03:56:30;;;;;;;4.10;1.25;;;;;;;16.93;43.33;99046.41;5043922;28;20042;-53
2022/05/29 03:58:56;;;;;;;2.45;1.00;;;;;;;16.55;43.88;99041.00;5043436;28;20388;-53
2022/05/29 04:01:22;;;;;;;2.85;1.05;;;;;;;16.14;45.02;99045.69;5033464;28;20021;-47
2022/05/29 04:03:47;;;;;;;2.15;0.90;;;;;;;15.82;46.18;99050.25;5039992;28;20064;-51
2022/05/29 04:06:13;;;;;;;5.10;1.05;;;;;;;15.68;46.30;99053.72;5041388;28;20114;-53
2022/05/29 04:14:07;;;;;;;1.67;0.90;;;;;;;18.28;40.86;99053.53;5039328;28;20507;-53
2022/05/29 04:16:32;;;;;;;3.60;0.80;;;;;;;19.99;37.11;99056.16;5039637;28;20052;-53
2022/05/29 04:18:58;;;;;;;4.07;1.10;;;;;;;20.05;36.38;99056.16;5044244;28;20029;-55
2022/05/29 04:21:24;;;;;;;2.83;0.85;;;;;;;19.97;35.92;99052.78;5040807;28;20056;-49
2022/05/29 04:23:50;;;;;;;3.47;1.00;;;;;;;20.16;35.59;99052.00;5040588;28;20033;-50
2022/05/29 04:26:17;;;;;;;1.55;0.90;;;;;;;21.79;33.02;99045.41;5042607;28;20025;-52
2022/05/29 04:28:42;;;;;;;3.05;0.80;;;;;;;22.69;31.00;99049.06;5042547;28;20075;-51
2022/05/29 04:31:08;;;;;;;3.55;0.70;;;;;;;21.90;31.58;99057.50;5039992;28;20029;-51
2022/05/29 04:33:33;;;;;;;2.47;0.80;;;;;;;20.50;33.93;99057.50;5039393;28;20112;-54
2022/05/29 04:35:59;;;;;;;1.30;0.70;;;;;;;19.05;36.57;99059.22;5040205;28;20381;-53
2022/05/29 04:38:27;;;;;;;1.13;0.55;;;;;;;17.91;39.06;99067.06;5040767;28;20099;-53
2022/05/29 04:40:54;;;;;;;4.47;0.90;;;;;;;16.96;41.16;99067.66;5038624;28;20033;-54
2022/05/29 04:43:20;;;;;;;3.38;0.80;;;;;;;16.25;42.99;99082.25;5039397;28;20025;-50
2022/05/29 04:45:51;;;;;;;0.82;0.70;;;;;;;15.82;43.80;99076.41;5042138;28;20033;-53
2022/05/29 04:48:16;;;;;;;2.20;0.77;;;;;;;15.47;44.57;99088.34;5040702;28;20381;-50
2022/05/29 04:50:42;;;;;;;1.70;0.88;;;;;;;15.12;45.50;99089.63;5040292;28;20033;-53
2022/05/29 04:53:08;;;;;;;1.42;0.73;;;;;;;14.81;46.03;99095.72;5038963;28;20103;-53
2022/05/29 04:55:35;;;;;;;0.70;0.57;;;;;;;14.40;47.17;99096.53;5039653;28;20099;-54
2022/05/29 04:58:01;;;;;;;0.93;0.60;;;;;;;13.82;48.30;99075.72;5041725;28;20410;-51
2022/05/29 05:00:27;;;;;;;1.23;0.55;;;;;;;13.73;48.92;99096.38;5038631;28;20039;-54
2022/05/29 05:02:52;;;;;;;2.92;0.63;;;;;;;13.52;49.57;99091.41;5042841;28;20110;-50
2022/05/29 05:05:18;;;;;;;3.40;0.70;;;;;;;13.43;50.23;99092.38;5038689;28;20210;-50
2022/05/29 05:07:44;;;;;;;1.83;0.65;;;;;;;13.37;50.57;99101.03;5039034;28;20017;-51
2022/05/29 05:10:12;;;;;;;2.55;0.93;;;;;;;13.35;50.55;99104.75;5039324;28;20539;-53
2022/05/29 05:12:39;;;;;;;2.60;0.90;;;;;;;13.22;50.93;99074.75;5041815;28;20028;-52
2022/05/29 05:15:06;;;;;;;1.83;0.63;;;;;;;13.42;50.58;99104.94;5040114;28;20029;-52
2022/05/29 05:17:32;;;;;;;2.40;0.95;;;;;;;13.51;50.59;99100.50;5041457;28;20040;-52
2022/05/29 05:19:57;;;;;;;0.98;0.70;;;;;;;13.68;50.01;99098.72;5040875;28;20028;-49
2022/05/29 05:22:22;;;;;;;3.35;0.82;;;;;;;13.97;49.91;99099.28;5038268;28;20029;-51
2022/05/29 05:24:49;;;;;;;4.50;0.70;;;;;;;14.56;48.99;99109.16;5042524;28;20071;-49
2022/05/29 05:27:15;;;;;;;1.27;0.70;;;;;;;15.18;47.60;99108.66;5040215;28;20060;-51
2022/05/29 05:29:41;;;;;;;1.10;0.80;;;;;;;16.21;45.22;99125.00;5038362;28;20021;-53
2022/05/29 05:32:07;;;;;;;1.67;0.70;;;;;;;17.30;42.07;99125.00;5043061;28;20036;-50
2022/05/29 05:34:33;;;;;;;2.35;0.60;;;;;;;17.63;40.68;99117.34;5038763;28;20025;-47
2022/05/29 05:36:58;;;;;;;1.13;0.50;;;;;;;17.74;40.07;99117.91;5039291;28;20052;-51
2022/05/29 05:39:24;;;;;;;1.02;0.57;;;;;;;18.05;40.30;99124.97;5040984;28;20112;-51
2022/05/29 05:41:49;;;;;;;1.13;0.60;;;;;;;18.13;40.82;99133.00;5035793;28;20025;-49
2022/05/29 05:44:15;;;;;;;2.75;0.60;;;;;;;18.49;40.46;99134.84;5039943;28;20033;-51
2022/05/29 05:46:50;;;;;;;2.55;0.77;;;;;;;18.93;40.90;99145.69;5037357;28;20029;-50
2022/05/29 05:49:17;;;;;;;1.67;0.70;;;;;;;19.54;39.29;99138.03;5037045;28;20126;-49
2022/05/29 05:51:43;;;;;;;3.60;0.70;;;;;;;21.11;36.48;99109.22;5039146;28;20469;-50
2022/05/29 05:54:08;;;;;;;1.60;0.60;;;;;;;22.43;33.98;99140.91;5040030;28;20083;-49
2022/05/29 05:56:34;;;;;;;1.67;0.73;;;;;;;22.60;33.28;99143.97;5040739;28;20088;-56
2022/05/29 05:58:59;;;;;;;1.27;0.80;;;;;;;22.60;33.48;99151.31;5039587;28;20092;-52
2022/05/29 06:01:25;;;;;;;2.45;0.80;;;;;;;22.73;33.20;99153.97;5039608;28;20033;-56
2022/05/29 06:03:51;;;;;;;2.30;0.70;;;;;;;22.93;32.88;99150.25;5050072;28;20036;-51
2022/05/29 06:06:17;;;;;;;2.38;0.85;;;;;;;23.11;31.86;99132.25;5044106;28;20037;-56
2022/05/29 06:08:43;;;;;;;2.08;0.60;;;;;;;24.19;30.47;99157.44;5029784;28;20038;-52
2022/05/29 06:11:08;;;;;;;2.55;0.73;;;;;;;24.68;29.80;99163.94;5029497;28;20036;-54
2022/05/29 06:13:35;;;;;;;2.28;0.70;;;;;;;25.69;28.02;99159.59;5028570;28;20033;-56
2022/05/29 06:16:02;;;;;;;0.90;0.52;;;;;;;26.88;26.66;99175.72;5030929;28;20415;-52
2022/05/29 06:18:28;;;;;;;0.90;0.77;;;;;;;27.73;24.86;99169.34;5029176;28;20141;-55
2022/05/29 06:20:59;;;;;;;1.65;0.63;;;;;;;28.46;24.12;99171.97;5030212;28;20525;-56
2022/05/29 06:23:24;;;;;;;0.57;0.50;;;;;;;28.39;23.22;99176.81;5030541;28;20060;-55
2022/05/29 06:25:50;;;;;;;1.25;0.52;;;;;;;28.29;23.13;99166.50;5030084;28;20069;-57
2022/05/29 06:28:15;;;;;;;0.60;0.50;;;;;;;27.57;23.91;99174.66;5029834;28;20031;-60
2022/05/29 06:30:41;;;;;;;0.95;0.70;;;;;;;26.75;24.48;99172.16;5030726;28;20083;-55
2022/05/29 06:33:06;;;;;;;1.05;0.47;;;;;;;26.11;25.10;99183.22;5030373;28;20132;-57
2022/05/29 06:35:32;;;;;;;1.05;0.50;;;;;;;25.19;25.91;99161.69;5025249;28;20492;-56
2022/05/29 06:37:57;;;;;;;3.13;0.50;;;;;;;24.20;27.88;99188.34;5029031;28;20064;-58
2022/05/29 06:40:22;;;;;;;0.98;0.77;;;;;;;22.98;29.52;99194.09;5030589;28;20098;-50
2022/05/29 06:42:48;;;;;;;3.05;0.63;;;;;;;21.68;31.64;99195.88;5030647;28;20094;-54
2022/05/29 06:45:13;;;;;;;3.95;0.90;;;;;;;20.68;33.18;99208.38;5033033;28;20029;-54
2022/05/29 06:47:40;;;;;;;5.20;0.80;;;;;;;19.90;34.47;99202.19;5033332;28;20381;-55
2022/05/29 06:50:07;;;;;;;1.40;0.68;;;;;;;19.36;36.22;99208.06;5034384;28;20045;-63
2022/05/29 06:52:32;;;;;;;3.03;0.45;;;;;;;19.03;36.68;99202.34;5017163;28;20030;-61
2022/05/29 06:54:59;;;;;;;0.63;0.55;;;;;;;18.91;37.53;99210.16;5034086;28;20480;-61
2022/05/29 06:57:37;;;;;;;1.15;0.60;;;;;;;18.93;37.97;99203.50;5033315;28;20049;-60
2022/05/29 07:08:30;;;;;;;1.55;0.30;;;;;;;19.52;35.54;99211.50;5031688;28;20037;-59
2022/05/29 07:11:03;;;;;;;0.52;0.30;;;;;;;20.13;35.32;99217.34;5033414;28;20033;-59
2022/05/29 07:13:31;;;;;;;1.17;0.40;;;;;;;20.45;35.29;99215.00;5032488;28;20037;-59
2022/05/29 07:15:57;;;;;;;1.20;0.40;;;;;;;20.78;33.41;99219.69;5032238;28;20108;-59
2022/05/29 07:18:22;;;;;;;1.70;0.50;;;;;;;20.75;34.11;99220.09;5031755;28;20145;-58
2022/05/29 07:20:48;;;;;;;0.77;0.50;;;;;;;20.47;35.04;99230.03;5033095;28;20060;-56
2022/05/29 07:23:14;;;;;;;1.50;0.57;;;;;;;20.01;36.79;99239.66;5032768;28;20022;-61
2022/05/29 07:25:40;;;;;;;1.10;0.40;;;;;;;19.35;37.61;99240.81;5031642;28;20528;-56
2022/05/29 07:28:08;;;;;;;1.70;0.68;;;;;;;18.72;38.43;99238.75;5032639;28;20044;-54
2022/05/29 07:30:34;;;;;;;0.40;0.38;;;;;;;18.03;40.45;99251.63;5033565;28;20036;-57
2022/05/29 07:33:00;;;;;;;0.73;0.60;;;;;;;17.39;42.58;99259.16;5032761;28;20056;-56
2022/05/29 07:35:27;;;;;;;1.95;0.80;;;;;;;16.69;44.55;99272.66;5032088;28;20151;-57
2022/05/29 07:37:52;;;;;;;2.67;0.75;;;;;;;16.07;46.46;99269.69;5032817;28;20461;-56
2022/05/29 07:40:18;;;;;;;1.67;0.60;;;;;;;15.65;47.39;99270.75;5032285;28;20048;-59
2022/05/29 07:45:27;;;;;;;1.38;0.77;;;;;;;14.88;48.89;99270.06;5031657;28;20048;-57
2022/05/29 07:47:53;;;;;;;5.25;0.77;;;;;;;14.50;49.95;99265.06;5030989;28;20154;-58
2022/05/29 07:50:21;;;;;;;2.63;0.90;;;;;;;14.32;51.47;99281.28;5031134;28;20029;-59
2022/05/29 07:52:46;;;;;;;2.33;0.90;;;;;;;14.19;51.72;99281.75;5028222;28;20036;-61
2022/05/29 07:55:13;;;;;;;3.30;1.00;;;;;;;14.30;51.96;99295.94;5025861;28;20361;-59
2022/05/29 07:57:39;;;;;;;2.92;1.02;;;;;;;14.49;51.64;99284.91;5029726;28;20049;-61
2022/05/29 08:00:08;;;;;;;2.97;1.10;;;;;;;14.76;50.77;99295.63;5023629;28;20370;-56
2022/05/29 08:02:34;;;;;;;8.50;1.05;;;;;;;15.14;49.63;99292.50;5031143;28;20025;-55
2022/05/29 08:05:02;;;;;;;2.22;1.10;;;;;;;15.68;48.58;99291.19;5030690;28;20037;-58
2022/05/29 08:07:28;;;;;;;2.88;1.38;;;;;;;16.41;46.09;99292.03;5031237;28;20037;-59
2022/05/29 08:09:54;;;;;;;3.00;1.10;;;;;;;17.61;44.41;99289.94;5029236;28;20127;-57
2022/05/29 08:12:20;;;;;;;5.30;1.10;;;;;;;19.35;41.33;99279.69;5030040;28;20040;-61
2022/05/29 08:14:45;;;;;;;2.78;1.20;;;;;;;20.90;36.48;99258.88;5032069;28;20022;-62
2022/05/29 08:17:10;;;;;;;3.67;1.30;;;;;;;21.95;33.64;99283.88;5031738;28;20030;-61
2022/05/29 08:19:38;;;;;;;2.22;1.08;;;;;;;22.31;33.69;99281.72;5032304;28;20033;-61
2022/05/29 08:22:04;;;;;;;3.25;1.20;;;;;;;22.23;32.85;99275.44;5031518;28;20045;-60
2022/05/29 08:33:08;;;;;;;3.42;1.27;;;;;;;20.84;34.86;99289.63;5031793;28;19917;-54
2022/05/29 08:35:35;;;;;;;2.47;1.20;;;;;;;20.24;36.10;99295.63;5031590;28;20048;-56
2022/05/29 08:38:02;;;;;;;2.40;1.17;;;;;;;19.96;36.79;99290.19;5031427;28;20457;-55
2022/05/29 08:40:30;;;;;;;2.30;1.35;;;;;;;20.00;36.71;99286.91;5021987;28;20305;-54
2022/05/29 08:42:56;;;;;;;2.25;1.23;;;;;;;20.04;35.74;99284.63;5029573;28;20167;-54
2022/05/29 08:45:22;;;;;;;1.55;1.20;;;;;;;20.45;35.69;99286.50;5029711;28;20069;-53
2022/05/29 08:47:49;;;;;;;2.97;1.40;;;;;;;20.84;35.44;99283.34;5026957;28;20499;-54
2022/05/29 08:50:32;;;;;;;2.40;0.90;;;;;;;20.98;34.23;99295.97;5029766;28;20029;-53
2022/05/29 08:53:04;;;;;;;1.33;0.88;;;;;;;20.44;34.54;99290.28;5029214;28;20029;-52
2022/05/29 08:55:59;;;;;;;2.67;0.88;;;;;;;19.75;35.61;99291.91;5027993;28;20096;-52
2022/05/29 08:58:50;;;;;;;1.67;0.90;;;;;;;19.02;37.27;99296.44;5030174;28;20053;-53
2022/05/29 09:01:31;;;;;;;1.52;0.90;;;;;;;18.72;38.40;99298.41;5028306;28;20040;-55
2022/05/29 09:04:08;;;;;;;1.17;0.88;;;;;;;18.91;38.41;99303.19;5028792;28;20099;-56
2022/05/29 09:06:43;;;;;;;1.58;0.80;;;;;;;19.14;36.67;99299.50;5025042;28;20444;-54
2022/05/29 09:09:20;;;;;;;2.47;1.60;;;;;;;19.17;36.98;99295.56;5026571;28;20037;-56
2022/05/29 09:11:51;;;;;;;2.28;0.82;;;;;;;19.08;37.15;99298.41;5020869;28;20033;-56
2022/05/29 09:14:39;;;;;;;2.47;0.80;;;;;;;19.46;36.40;99304.59;5022302;28;20137;-56
2022/05/29 09:17:11;;;;;;;1.45;0.70;;;;;;;19.51;34.92;99294.00;5027908;28;20310;-59
2022/05/29 09:20:00;;;;;;;3.25;1.15;;;;;;;19.76;35.07;99307.16;5029535;28;20048;-60
2022/05/29 09:22:29;;;;;;;0.90;0.80;;;;;;;19.75;33.39;99309.03;5029898;28;20029;-61
2022/05/29 09:25:08;;;;;;;1.45;0.70;;;;;;;19.54;34.30;99307.22;5030825;28;20046;-56
2022/05/29 09:27:37;;;;;;;1.20;0.70;;;;;;;19.25;36.03;99309.00;5029633;28;20045;-60
2022/05/29 09:30:06;;;;;;;2.35;0.68;;;;;;;19.37;35.59;99306.63;5030345;28;20076;-58
2022/05/29 09:32:34;;;;;;;2.45;0.60;;;;;;;19.54;35.26;99319.94;5030085;28;20025;-57
2022/05/29 09:35:55;;;;;;;2.38;1.00;;;;;;;19.49;35.63;99317.78;5030465;28;20766;-59
2022/05/29 09:38:27;;;;;;;0.80;0.80;;;;;;;18.94;36.49;99326.38;4999725;28;20046;-61
2022/05/29 09:41:02;;;;;;;3.10;1.05;;;;;;;18.88;36.61;99322.56;5018599;28;20113;-59
2022/05/29 09:43:29;;;;;;;1.08;0.70;;;;;;;18.93;35.43;99325.56;5030451;28;20069;-61
2022/05/29 09:45:55;;;;;;;3.58;0.88;;;;;;;19.00;35.86;99327.53;5029957;28;20042;-60
2022/05/29 09:51:24;;;;;;;2.07;0.90;;;;;;;19.21;36.71;99318.56;5029326;28;20040;-61
2022/05/29 09:53:56;;;;;;;3.42;0.85;;;;;;;19.02;36.09;99320.03;5027322;28;20622;-62
2022/05/29 09:56:30;;;;;;;3.35;0.77;;;;;;;19.12;35.88;99327.88;5026627;28;20041;-59
2022/05/29 09:59:12;;;;;;;1.00;0.70;;;;;;;19.53;35.38;99327.22;5026607;28;20033;-58
2022/05/29 10:01:42;;;;;;;1.05;0.60;;;;;;;19.60;34.63;99321.84;5026425;28;20442;-60
2022/05/29 10:04:19;;;;;;;1.55;0.70;;;;;;;19.52;34.43;99298.38;5028501;28;20041;-57
2022/05/29 10:06:48;;;;;;;0.90;0.60;;;;;;;19.63;33.77;99316.88;5024995;28;20035;-58
2022/05/29 10:09:23;;;;;;;2.35;0.60;;;;;;;19.82;34.05;99325.41;5029333;28;20113;-60
2022/05/29 10:11:51;;;;;;;1.45;0.80;;;;;;;19.98;33.56;99320.72;5028858;28;20055;-57
2022/05/29 10:14:36;;;;;;;1.25;0.85;;;;;;;19.93;34.18;99321.34;5030356;28;20037;-57
2022/05/29 10:17:15;;;;;;;1.42;0.93;;;;;;;19.56;35.16;99332.28;5030049;28;20462;-60
2022/05/29 10:19:44;;;;;;;0.88;0.75;;;;;;;18.85;36.91;99336.50;5013517;28;20037;-58
2022/05/29 10:22:36;;;;;;;0.93;0.70;;;;;;;18.65;37.40;99330.84;5014197;28;20088;-57
2022/05/29 10:25:13;;;;;;;2.17;0.80;;;;;;;18.51;38.26;99341.50;5013175;28;20437;-59
2022/05/29 10:27:40;;;;;;;0.60;0.60;;;;;;;18.41;38.25;99338.25;5031164;28;20021;-59
2022/05/29 10:30:08;;;;;;;2.15;0.90;;;;;;;18.46;37.76;99341.22;5033350;28;20033;-57
2022/05/29 10:32:38;;;;;;;1.02;0.70;;;;;;;18.43;38.38;99336.19;5032154;28;20034;-54
2022/05/29 10:35:18;;;;;;;3.90;0.73;;;;;;;18.37;37.49;99334.22;5033460;28;20037;-58
2022/05/29 10:37:45;;;;;;;1.73;1.13;;;;;;;18.01;37.37;99338.50;5032855;28;20030;-59
2022/05/29 10:40:22;;;;;;;3.00;0.82;;;;;;;17.93;37.57;99336.69;5034229;28;20026;-58
2022/05/29 10:42:52;;;;;;;2.92;1.00;;;;;;;18.15;37.09;99342.25;5034101;28;20040;-60
2022/05/29 10:45:26;;;;;;;1.88;0.80;;;;;;;18.34;37.26;99337.31;5033815;28;20048;-59
2022/05/29 10:48:03;;;;;;;2.05;0.90;;;;;;;18.37;36.35;99328.81;5032719;28;20105;-56
2022/05/29 10:50:47;;;;;;;1.55;0.90;;;;;;;18.41;36.11;99338.25;5033997;28;20038;-56
2022/05/29 10:53:35;;;;;;;3.08;0.88;;;;;;;18.44;36.38;99339.72;5033787;28;20022;-57
2022/05/29 10:56:47;;;;;;;1.88;0.90;;;;;;;18.68;36.45;99352.16;5033601;28;20064;-56
2022/05/29 10:59:39;;;;;;;2.97;1.25;;;;;;;18.65;36.50;99352.53;5033313;28;20127;-56
2022/05/29 11:05:32;;;;;;;1.45;1.23;;;;;;;18.34;37.31;99367.94;5033210;28;20509;-54
2022/05/29 11:08:19;;;;;;;1.17;0.77;;;;;;;18.04;38.33;99378.75;5032012;28;20029;-60
2022/05/29 11:10:50;;;;;;;1.17;0.93;;;;;;;17.71;39.23;99387.13;5033342;28;20033;-59
2022/05/29 11:13:28;;;;;;;2.20;1.08;;;;;;;17.43;40.29;99386.84;5033255;28;20025;-56
2022/05/29 11:16:05;;;;;;;3.05;0.98;;;;;;;17.47;40.27;99404.38;5032664;28;20133;-54
2022/05/29 11:18:33;;;;;;;2.08;1.20;;;;;;;17.42;40.02;99413.03;5032819;28;20041;-60
2022/05/29 11:21:03;;;;;;;2.40;1.08;;;;;;;17.36;39.22;99414.63;5032907;28;20037;-58
2022/05/29 11:24:23;;;;;;;3.00;0.98;;;;;;;17.33;40.00;99430.34;5031613;28;20048;-59
2022/05/29 11:27:03;;;;;;;1.55;0.73;;;;;;;16.84;41.83;99420.56;5010192;28;20061;-58
2022/05/29 11:29:40;;;;;;;1.00;0.80;;;;;;;16.35;44.07;99419.69;5009717;28;20157;-58
2022/05/29 11:32:18;;;;;;;2.88;0.90;;;;;;;16.07;45.20;99411.97;5024466;28;20045;-59
2022/05/29 11:35:15;;;;;;;0.95;0.80;;;;;;;15.90;44.85;99409.25;5032654;28;20025;-59
2022/05/29 11:37:56;;;;;;;1.70;0.80;;;;;;;15.73;46.16;99418.34;5012747;28;20049;-56
2022/05/29 11:40:46;;;;;;;2.28;1.23;;;;;;;15.68;47.19;99426.94;5032668;28;20087;-58
2022/05/29 11:43:30;;;;;;;2.00;1.13;;;;;;;15.55;47.01;99389.66;5012440;28;20038;-57
2022/05/29 11:52:20;;;;;;;2.53;1.17;;;;;;;15.91;41.55;99412.81;5032223;28;20033;-57
2022/05/29 11:55:21;;;;;;;2.55;1.00;;;;;;;15.96;41.19;99391.53;5032019;28;20076;-58
2022/05/29 11:57:53;;;;;;;3.80;1.13;;;;;;;15.88;39.92;99388.81;5031897;28;20088;-59
2022/05/29 12:00:25;;;;;;;2.95;0.98;;;;;;;15.89;39.63;99396.75;5031997;28;20041;-58
2022/05/29 12:03:08;;;;;;;4.28;0.82;;;;;;;15.91;39.83;99402.00;5031360;28;20034;-58
2022/05/29 12:05:44;;;;;;;3.95;1.02;;;;;;;15.94;40.04;99409.75;5029908;28;20048;-56
2022/05/29 12:08:18;;;;;;;;;;;;;;;16.24;39.78;99412.78;5029272;28;20108;-63
2022/05/29 12:10:56;;;;;;;5.40;1.23;;;;;;;16.20;39.84;99423.09;5029863;28;19955;-59
2022/05/29 12:13:28;;;;;;;1.25;0.70;;;;;;;16.42;40.07;99423.41;5030881;28;20068;-61
2022/05/29 12:16:05;;;;;;;2.72;0.80;;;;;;;16.91;38.88;99433.22;5021861;28;20265;-61
2022/05/29 12:18:47;;;;;;;2.97;0.75;;;;;;;17.40;38.18;99433.19;5028002;28;20033;-60
2022/05/29 12:21:20;;;;;;;2.97;0.70;;;;;;;17.36;37.77;99379.44;5028778;28;20070;-61
2022/05/29 12:23:49;;;;;;;2.28;0.52;;;;;;;18.07;36.03;99434.41;5028152;28;20100;-61
2022/05/29 12:26:23;;;;;;;1.23;0.52;;;;;;;18.18;35.33;99412.31;5029032;28;20034;-59
2022/05/29 12:28:59;;;;;;;2.10;0.82;;;;;;;18.42;35.62;99421.25;5025592;28;20034;-62
2022/05/29 12:31:41;;;;;;;1.50;0.60;;;;;;;18.48;34.74;99435.91;5025817;28;20026;-60
2022/05/29 12:34:16;;;;;;;1.40;0.70;;;;;;;18.19;33.64;99442.94;5029029;28;20233;-60
2022/05/29 12:36:44;;;;;;;;;;;;;;;18.38;34.20;99441.59;5031181;28;20431;-58
2022/05/29 12:39:47;;;;;;;0.98;0.70;;;;;;;17.70;35.04;99441.47;5052784;28;19913;-61